sensor_id;sensor_type;location;lat;lon;timestamp;pressure;altitude;pressure_sealevel;temperature;humidity
73240;BME280;61452;40.054;4.110;2023-11-19T00:04:29;102634.53;;;19.74;100.00
73240;BME280;61452;40.054;4.110;2023-11-19T00:09:35;102626.63;;;19.72;100.00
73240;BME280;61452;40.054;4.110;2023-11-19T00:14:39;102615.97;;;19.72;100.00
73240;BME280;61452;40.054;4.110;2023-11-19T00:19:41;102610.63;;;19.72;100.00
73240;BME280;61452;40.054;4.110;2023-11-19T00:24:43;102619.41;;;19.74;100.00
73240;BME280;61452;40.054;4.110;2023-11-19T00:29:46;102605.81;;;19.79;100.00
73240;BME280;61452;40.054;4.110;2023-11-19T00:34:48;102604.44;;;19.72;100.00
73240;BME280;61452;40.054;4.110;2023-11-19T00:39:50;102597.59;;;19.68;100.00
73240;BME280;61452;40.054;4.110;2023-11-19T00:44:54;102621.38;;;19.71;100.00
73240;BME280;61452;40.054;4.110;2023-11-19T00:49:57;102606.25;;;19.71;100.00
73240;BME280;61452;40.054;4.110;2023-11-19T00:54:59;102604.44;;;19.72;100.00
73240;BME280;61452;40.054;4.110;2023-11-19T01:00:02;102601.78;;;19.72;100.00
73240;BME280;61452;40.054;4.110;2023-11-19T01:05:11;102597.41;;;19.71;100.00
73240;BME280;61452;40.054;4.110;2023-11-19T01:10:15;102594.75;;;19.71;100.00
73240;BME280;61452;40.054;4.110;2023-11-19T01:15:18;102594.81;;;19.69;100.00
73240;BME280;61452;40.054;4.110;2023-11-19T01:20:22;102586.84;;;19.69;100.00
73240;BME280;61452;40.054;4.110;2023-11-19T01:25:25;102589.50;;;19.69;100.00
73240;BME280;61452;40.054;4.110;2023-11-19T01:30:27;102585.97;;;19.69;100.00
73240;BME280;61452;40.054;4.110;2023-11-19T01:35:29;102588.56;;;19.70;100.00
73240;BME280;61452;40.054;4.110;2023-11-19T01:40:31;102584.28;;;19.68;100.00
73240;BME280;61452;40.054;4.110;2023-11-19T01:45:34;102582.00;;;19.76;100.00
73240;BME280;61452;40.054;4.110;2023-11-19T01:50:36;102574.97;;;19.75;100.00
73240;BME280;61452;40.054;4.110;2023-11-19T01:55:39;102572.22;;;19.76;100.00
73240;BME280;61452;40.054;4.110;2023-11-19T02:00:41;102574.50;;;19.68;100.00
73240;BME280;61452;40.054;4.110;2023-11-19T02:05:45;102565.66;;;19.68;100.00
73240;BME280;61452;40.054;4.110;2023-11-19T02:10:48;102569.16;;;19.68;100.00
73240;BME280;61452;40.054;4.110;2023-11-19T02:15:52;102563.72;;;19.70;100.00
73240;BME280;61452;40.054;4.110;2023-11-19T02:20:55;102563.00;;;19.68;100.00
73240;BME280;61452;40.054;4.110;2023-11-19T02:26:26;102573.63;;;19.68;100.00
73240;BME280;61452;40.054;4.110;2023-11-19T02:31:30;102552.34;;;19.68;100.00
73240;BME280;61452;40.054;4.110;2023-11-19T02:36:32;102557.75;;;19.66;100.00
73240;BME280;61452;40.054;4.110;2023-11-19T02:41:35;102552.41;;;19.66;100.00
73240;BME280;61452;40.054;4.110;2023-11-19T02:46:37;102538.25;;;19.66;100.00
73240;BME280;61452;40.054;4.110;2023-11-19T02:51:39;102532.56;;;19.72;100.00
73240;BME280;61452;40.054;4.110;2023-11-19T02:56:44;102544.44;;;19.66;100.00
73240;BME280;61452;40.054;4.110;2023-11-19T03:01:50;102531.69;;;19.71;100.00
73240;BME280;61452;40.054;4.110;2023-11-19T03:06:54;102540.06;;;19.65;100.00
73240;BME280;61452;40.054;4.110;2023-11-19T03:11:57;102530.34;;;19.64;100.00
73240;BME280;61452;40.054;4.110;2023-11-19T03:16:59;102531.19;;;19.65;100.00
73240;BME280;61452;40.054;4.110;2023-11-19T03:22:01;102524.16;;;19.64;100.00
73240;BME280;61452;40.054;4.110;2023-11-19T03:27:04;102520.84;;;19.60;100.00
73240;BME280;61452;40.054;4.110;2023-11-19T03:32:06;102522.63;;;19.60;100.00
73240;BME280;61452;40.054;4.110;2023-11-19T03:37:08;102526.81;;;19.64;100.00
73240;BME280;61452;40.054;4.110;2023-11-19T03:42:10;102519.97;;;19.60;100.00
73240;BME280;61452;40.054;4.110;2023-11-19T03:47:15;102522.44;;;19.63;100.00
73240;BME280;61452;40.054;4.110;2023-11-19T03:52:18;102519.88;;;19.61;100.00
73240;BME280;61452;40.054;4.110;2023-11-19T03:57:22;102527.88;;;19.61;100.00
73240;BME280;61452;40.054;4.110;2023-11-19T04:02:24;102519.78;;;19.63;100.00
73240;BME280;61452;40.054;4.110;2023-11-19T04:07:29;102525.22;;;19.61;100.00
73240;BME280;61452;40.054;4.110;2023-11-19T04:12:31;102520.84;;;19.60;100.00
73240;BME280;61452;40.054;4.110;2023-11-19T04:17:34;102530.19;;;19.67;100.00
73240;BME280;61452;40.054;4.110;2023-11-19T04:22:36;102528.75;;;19.62;100.00
73240;BME280;61452;40.054;4.110;2023-11-19T04:27:38;102524.34;;;19.61;100.00
73240;BME280;61452;40.054;4.110;2023-11-19T04:32:42;102526.16;;;19.60;100.00
73240;BME280;61452;40.054;4.110;2023-11-19T04:37:44;102521.78;;;19.59;100.00
73240;BME280;61452;40.054;4.110;2023-11-19T04:42:46;102530.41;;;19.63;100.00
73240;BME280;61452;40.054;4.110;2023-11-19T04:47:48;102522.72;;;19.58;100.00
73240;BME280;61452;40.054;4.110;2023-11-19T04:52:50;102521.84;;;19.58;100.00
73240;BME280;61452;40.054;4.110;2023-11-19T04:57:54;102516.53;;;19.58;100.00
73240;BME280;61452;40.054;4.110;2023-11-19T05:02:56;102513.00;;;19.57;100.00
73240;BME280;61452;40.054;4.110;2023-11-19T05:07:58;102512.16;;;19.57;100.00
73240;BME280;61452;40.054;4.110;2023-11-19T05:13:01;102511.31;;;19.56;100.00
73240;BME280;61452;40.054;4.110;2023-11-19T05:18:03;102509.50;;;19.57;100.00
73240;BME280;61452;40.054;4.110;2023-11-19T05:23:06;102504.28;;;19.55;100.00
73240;BME280;61452;40.054;4.110;2023-11-19T05:28:22;102504.16;;;19.57;100.00
73240;BME280;61452;40.054;4.110;2023-11-19T05:33:26;102505.13;;;19.56;100.00
73240;BME280;61452;40.054;4.110;2023-11-19T05:38:28;102513.00;;;19.57;100.00
73240;BME280;61452;40.054;4.110;2023-11-19T05:43:31;102501.50;;;19.57;100.00
73240;BME280;61452;40.054;4.110;2023-11-19T05:48:34;102505.13;;;19.56;100.00
73240;BME280;61452;40.054;4.110;2023-11-19T05:53:36;102502.47;;;19.56;100.00
73240;BME280;61452;40.054;4.110;2023-11-19T05:58:38;102508.66;;;19.56;100.00
73240;BME280;61452;40.054;4.110;2023-11-19T06:03:42;102499.81;;;19.56;100.00
73240;BME280;61452;40.054;4.110;2023-11-19T06:08:45;102494.56;;;19.54;100.00
73240;BME280;61452;40.054;4.110;2023-11-19T06:13:48;102502.56;;;19.54;100.00
73240;BME280;61452;40.054;4.110;2023-11-19T06:18:52;102506.09;;;19.55;100.00
73240;BME280;61452;40.054;4.110;2023-11-19T06:23:55;102508.81;;;19.53;100.00
73240;BME280;61452;40.054;4.110;2023-11-19T06:28:57;102511.41;;;19.55;100.00
73240;BME280;61452;40.054;4.110;2023-11-19T06:33:59;102512.44;;;19.52;100.00
73240;BME280;61452;40.054;4.110;2023-11-19T06:39:02;102518.59;;;19.53;100.00
73240;BME280;61452;40.054;4.110;2023-11-19T06:44:04;102510.63;;;19.53;100.00
73240;BME280;61452;40.054;4.110;2023-11-19T06:49:07;102516.91;;;19.52;100.00
73240;BME280;61452;40.054;4.110;2023-11-19T06:54:10;102519.56;;;19.52;100.00
73240;BME280;61452;40.054;4.110;2023-11-19T06:59:12;102514.81;;;19.57;100.00
73240;BME280;61452;40.054;4.110;2023-11-19T07:04:14;102521.84;;;19.58;100.00
73240;BME280;61452;40.054;4.110;2023-11-19T07:09:17;102520.06;;;19.58;100.00
73240;BME280;61452;40.054;4.110;2023-11-19T07:14:20;102520.91;;;19.59;100.00
73240;BME280;61452;40.054;4.110;2023-11-19T07:19:23;102523.06;;;19.52;100.00
73240;BME280;61452;40.054;4.110;2023-11-19T07:24:25;102525.38;;;19.58;100.00
73240;BME280;61452;40.054;4.110;2023-11-19T07:29:29;102528.97;;;19.57;100.00
73240;BME280;61452;40.054;4.110;2023-11-19T07:34:34;102539.97;;;19.51;100.00
73240;BME280;61452;40.054;4.110;2023-11-19T07:39:36;102529.47;;;19.50;100.00
73240;BME280;61452;40.054;4.110;2023-11-19T07:44:39;102536.22;;;19.55;100.00
73240;BME280;61452;40.054;4.110;2023-11-19T07:49:42;102534.50;;;19.54;100.00
73240;BME280;61452;40.054;4.110;2023-11-19T07:54:46;102547.22;;;19.49;100.00
73240;BME280;61452;40.054;4.110;2023-11-19T07:59:48;102548.94;;;19.50;100.00
73240;BME280;61452;40.054;4.110;2023-11-19T08:04:50;102547.22;;;19.49;100.00
73240;BME280;61452;40.054;4.110;2023-11-19T08:09:54;102562.41;;;19.47;100.00
73240;BME280;61452;40.054;4.110;2023-11-19T08:14:56;102556.16;;;19.48;100.00
73240;BME280;61452;40.054;4.110;2023-11-19T08:20:00;102569.47;;;19.48;100.00
73240;BME280;61452;40.054;4.110;2023-11-19T08:25:03;102581.91;;;19.48;100.00
73240;BME280;61452;40.054;4.110;2023-11-19T08:30:06;102571.25;;;19.48;100.00
73240;BME280;61452;40.054;4.110;2023-11-19T08:35:09;102584.66;;;19.46;100.00
73240;BME280;61452;40.054;4.110;2023-11-19T08:40:11;102573.91;;;19.48;100.00
73240;BME280;61452;40.054;4.110;2023-11-19T08:45:16;102574.00;;;19.46;100.00
73240;BME280;61452;40.054;4.110;2023-11-19T08:50:18;102579.31;;;19.46;100.00
73240;BME280;61452;40.054;4.110;2023-11-19T08:55:20;102579.31;;;19.46;100.00
73240;BME280;61452;40.054;4.110;2023-11-19T09:00:22;102585.50;;;19.47;100.00
73240;BME280;61452;40.054;4.110;2023-11-19T09:05:24;102586.38;;;19.47;100.00
73240;BME280;61452;40.054;4.110;2023-11-19T09:10:27;102591.69;;;19.47;100.00
73240;BME280;61452;40.054;4.110;2023-11-19T09:15:29;102589.03;;;19.47;100.00
73240;BME280;61452;40.054;4.110;2023-11-19T09:20:31;102581.91;;;19.48;100.00
73240;BME280;61452;40.054;4.110;2023-11-19T09:25:39;102578.47;;;19.46;100.00
73240;BME280;61452;40.054;4.110;2023-11-19T09:30:44;102581.03;;;19.47;100.00
73240;BME280;61452;40.054;4.110;2023-11-19T09:35:48;102576.59;;;19.48;100.00
73240;BME280;61452;40.054;4.110;2023-11-19T09:40:51;102581.13;;;19.46;100.00
73240;BME280;61452;40.054;4.110;2023-11-19T09:45:54;102580.19;;;19.47;100.00
73240;BME280;61452;40.054;4.110;2023-11-19T09:50:58;102581.91;;;19.48;100.00
73240;BME280;61452;40.054;4.110;2023-11-19T09:56:02;102589.03;;;19.47;100.00
73240;BME280;61452;40.054;4.110;2023-11-19T10:01:05;102581.91;;;19.48;100.00
73240;BME280;61452;40.054;4.110;2023-11-19T10:06:15;102584.56;;;19.48;100.00
73240;BME280;61452;40.054;4.110;2023-11-19T10:11:18;102577.44;;;19.48;100.00
73240;BME280;61452;40.054;4.110;2023-11-19T10:16:20;102564.22;;;19.47;100.00
73240;BME280;61452;40.054;4.110;2023-11-19T10:21:22;102568.69;;;19.46;100.00
73240;BME280;61452;40.054;4.110;2023-11-19T10:26:26;102572.97;;;19.49;100.00
73240;BME280;61452;40.054;4.110;2023-11-19T10:31:28;102575.72;;;19.47;100.00
73240;BME280;61452;40.054;4.110;2023-11-19T10:36:38;102570.41;;;19.47;100.00
73240;BME280;61452;40.054;4.110;2023-11-19T10:41:43;102558.81;;;19.48;100.00
73240;BME280;61452;40.054;4.110;2023-11-19T10:46:45;102545.63;;;19.45;100.00
73240;BME280;61452;40.054;4.110;2023-11-19T10:51:48;102544.66;;;19.48;100.00
73240;BME280;61452;40.054;4.110;2023-11-19T10:56:55;102533.13;;;19.47;100.00
73240;BME280;61452;40.054;4.110;2023-11-19T11:02:03;102525.06;;;19.49;100.00
73240;BME280;61452;40.054;4.110;2023-11-19T11:07:09;102518.97;;;19.47;100.00
73240;BME280;61452;40.054;4.110;2023-11-19T11:12:12;102510.03;;;19.48;100.00
73240;BME280;61452;40.054;4.110;2023-11-19T11:17:17;102507.31;;;19.49;100.00
73240;BME280;61452;40.054;4.110;2023-11-19T11:22:21;102509.84;;;19.51;100.00
73240;BME280;61452;40.054;4.110;2023-11-19T11:38:09;102493.13;;;19.49;100.00
73240;BME280;61452;40.054;4.110;2023-11-19T11:49:05;102475.34;;;19.49;100.00
73240;BME280;61452;40.054;4.110;2023-11-19T11:54:09;102471.75;;;19.50;100.00
73240;BME280;61452;40.054;4.110;2023-11-19T11:59:23;102472.69;;;19.49;100.00
73240;BME280;61452;40.054;4.110;2023-11-19T12:04:28;102469.09;;;19.50;100.00
73240;BME280;61452;40.054;4.110;2023-11-19T12:09:31;102460.25;;;19.50;100.00
73240;BME280;61452;40.054;4.110;2023-11-19T12:20:02;102445.13;;;19.50;100.00
73240;BME280;61452;40.054;4.110;2023-11-19T12:25:05;102437.97;;;19.51;100.00
73240;BME280;61452;40.054;4.110;2023-11-19T12:30:08;102432.78;;;19.49;100.00
73240;BME280;61452;40.054;4.110;2023-11-19T12:35:11;102429.91;;;19.52;100.00
73240;BME280;61452;40.054;4.110;2023-11-19T12:45:17;102425.44;;;19.53;100.00
73240;BME280;61452;40.054;4.110;2023-11-19T12:50:21;102427.25;;;19.52;100.00
73240;BME280;61452;40.054;4.110;2023-11-19T12:55:28;102430.84;;;19.51;100.00
73240;BME280;61452;40.054;4.110;2023-11-19T13:00:32;102415.88;;;19.50;100.00
73240;BME280;61452;40.054;4.110;2023-11-19T13:05:34;102405.22;;;19.50;100.00
73240;BME280;61452;40.054;4.110;2023-11-19T13:15:50;102412.16;;;19.53;100.00
73240;BME280;61452;40.054;4.110;2023-11-19T13:20:53;102397.13;;;19.52;100.00
73240;BME280;61452;40.054;4.110;2023-11-19T13:25:55;102397.03;;;19.53;100.00
73240;BME280;61452;40.054;4.110;2023-11-19T13:30:57;102388.28;;;19.51;100.00
73240;BME280;61452;40.054;4.110;2023-11-19T13:36:00;102388.19;;;19.53;100.00
73240;BME280;61452;40.054;4.110;2023-11-19T13:41:07;102384.59;;;19.54;100.00
73240;BME280;61452;40.054;4.110;2023-11-19T13:46:11;102378.41;;;19.53;100.00
73240;BME280;61452;40.054;4.110;2023-11-19T13:51:14;102376.75;;;19.51;100.00
73240;BME280;61452;40.054;4.110;2023-11-19T13:56:17;102381.91;;;19.54;100.00
73240;BME280;61452;40.054;4.110;2023-11-19T14:01:19;102375.66;;;19.55;100.00
73240;BME280;61452;40.054;4.110;2023-11-19T14:06:22;102366.03;;;19.52;100.00
73240;BME280;61452;40.054;4.110;2023-11-19T14:11:25;102376.41;;;19.57;100.00
73240;BME280;61452;40.054;4.110;2023-11-19T14:16:27;102365.00;;;19.55;100.00
73240;BME280;61452;40.054;4.110;2023-11-19T14:21:29;102364.91;;;19.56;100.00
73240;BME280;61452;40.054;4.110;2023-11-19T14:26:32;102371.06;;;19.57;100.00
73240;BME280;61452;40.054;4.110;2023-11-19T14:31:34;102363.94;;;19.57;100.00
73240;BME280;61452;40.054;4.110;2023-11-19T14:36:37;102364.81;;;19.58;100.00
73240;BME280;61452;40.054;4.110;2023-11-19T14:41:39;102371.84;;;19.59;100.00
73240;BME280;61452;40.054;4.110;2023-11-19T14:46:42;102360.34;;;19.58;100.00
73240;BME280;61452;40.054;4.110;2023-11-19T14:51:44;102362.91;;;19.60;100.00
73240;BME280;61452;40.054;4.110;2023-11-19T14:56:49;102347.03;;;19.58;100.00
73240;BME280;61452;40.054;4.110;2023-11-19T15:01:51;102346.94;;;19.60;100.00
73240;BME280;61452;40.054;4.110;2023-11-19T15:06:56;102346.00;;;19.61;100.00
73240;BME280;61452;40.054;4.110;2023-11-19T15:11:59;102338.88;;;19.61;100.00
73240;BME280;61452;40.054;4.110;2023-11-19T15:17:01;102337.06;;;19.62;100.00
73240;BME280;61452;40.054;4.110;2023-11-19T15:22:03;102338.88;;;19.61;100.00
73240;BME280;61452;40.054;4.110;2023-11-19T15:27:07;102347.72;;;19.62;100.00
73240;BME280;61452;40.054;4.110;2023-11-19T15:32:14;102347.59;;;19.63;100.00
73240;BME280;61452;40.054;4.110;2023-11-19T15:37:16;102349.41;;;19.63;100.00
73240;BME280;61452;40.054;4.110;2023-11-19T15:42:18;102342.19;;;19.65;100.00
73240;BME280;61452;40.054;4.110;2023-11-19T15:47:20;102344.00;;;19.64;100.00
73240;BME280;61452;40.054;4.110;2023-11-19T15:52:23;102352.84;;;19.65;100.00
73240;BME280;61452;40.054;4.110;2023-11-19T15:57:25;102350.09;;;19.66;100.00
73240;BME280;61452;40.054;4.110;2023-11-19T16:02:28;102356.25;;;19.67;100.00
73240;BME280;61452;40.054;4.110;2023-11-19T16:07:31;102350.00;;;19.68;100.00
73240;BME280;61452;40.054;4.110;2023-11-19T16:12:33;102347.41;;;19.66;100.00
73240;BME280;61452;40.054;4.110;2023-11-19T16:17:35;102351.97;;;19.64;100.00
73240;BME280;61452;40.054;4.110;2023-11-19T16:22:38;102349.22;;;19.66;100.00
73240;BME280;61452;40.054;4.110;2023-11-19T16:27:40;102351.03;;;19.65;100.00
73240;BME280;61452;40.054;4.110;2023-11-19T16:32:52;102356.34;;;19.65;100.00
73240;BME280;61452;40.054;4.110;2023-11-19T16:37:57;102353.59;;;19.67;100.00
73240;BME280;61452;40.054;4.110;2023-11-19T16:42:59;102355.50;;;19.65;100.00
73240;BME280;61452;40.054;4.110;2023-11-19T16:48:01;102354.56;;;19.66;100.00
73240;BME280;61452;40.054;4.110;2023-11-19T16:53:05;102363.56;;;19.63;100.00
73240;BME280;61452;40.054;4.110;2023-11-19T16:58:07;102361.69;;;19.65;100.00
73240;BME280;61452;40.054;4.110;2023-11-19T17:03:11;102356.56;;;19.62;100.00
73240;BME280;61452;40.054;4.110;2023-11-19T17:08:14;102370.53;;;19.66;100.00
73240;BME280;61452;40.054;4.110;2023-11-19T17:13:16;102361.69;;;19.65;100.00
73240;BME280;61452;40.054;4.110;2023-11-19T17:18:18;102360.81;;;19.65;100.00
73240;BME280;61452;40.054;4.110;2023-11-19T17:23:20;102364.25;;;19.67;100.00
73240;BME280;61452;40.054;4.110;2023-11-19T17:28:23;102368.63;;;19.68;100.00
73240;BME280;61452;40.054;4.110;2023-11-19T17:33:25;102351.97;;;19.64;100.00
73240;BME280;61452;40.054;4.110;2023-11-19T17:38:27;102359.78;;;19.67;100.00
73240;BME280;61452;40.054;4.110;2023-11-19T17:43:29;102363.41;;;19.66;100.00
73240;BME280;61452;40.054;4.110;2023-11-19T17:48:31;102363.41;;;19.66;100.00
73240;BME280;61452;40.054;4.110;2023-11-19T17:53:34;102356.34;;;19.65;100.00
73240;BME280;61452;40.054;4.110;2023-11-19T17:58:39;102352.75;;;19.66;100.00
73240;BME280;61452;40.054;4.110;2023-11-19T18:03:41;102355.31;;;19.68;100.00
73240;BME280;61452;40.054;4.110;2023-11-19T18:08:44;102360.66;;;19.68;100.00
73240;BME280;61452;40.054;4.110;2023-11-19T18:13:46;102361.59;;;19.67;100.00
73240;BME280;61452;40.054;4.110;2023-11-19T18:18:50;102370.53;;;19.66;100.00
73240;BME280;61452;40.054;4.110;2023-11-19T18:23:53;102372.31;;;19.65;100.00
73240;BME280;61452;40.054;4.110;2023-11-19T18:28:55;102374.91;;;19.67;100.00
73240;BME280;61452;40.054;4.110;2023-11-19T18:33:57;102360.66;;;19.68;100.00
73240;BME280;61452;40.054;4.110;2023-11-19T18:38:59;102359.78;;;19.67;100.00
73240;BME280;61452;40.054;4.110;2023-11-19T18:44:01;102358.94;;;19.67;100.00
73240;BME280;61452;40.054;4.110;2023-11-19T18:49:04;102356.25;;;19.67;100.00
73240;BME280;61452;40.054;4.110;2023-11-19T18:54:07;102359.00;;;19.65;100.00
73240;BME280;61452;40.054;4.110;2023-11-19T18:59:10;102361.59;;;19.67;100.00
73240;BME280;61452;40.054;4.110;2023-11-19T19:04:13;102354.63;;;19.64;100.00
73240;BME280;61452;40.054;4.110;2023-11-19T19:09:16;102357.13;;;19.67;100.00
73240;BME280;61452;40.054;4.110;2023-11-19T19:14:22;102364.25;;;19.67;100.00
73240;BME280;61452;40.054;4.110;2023-11-19T19:19:24;102350.94;;;19.67;100.00
73240;BME280;61452;40.054;4.110;2023-11-19T19:24:26;102361.59;;;19.67;100.00
73240;BME280;61452;40.054;4.110;2023-11-19T19:29:28;102358.06;;;19.66;100.00
73240;BME280;61452;40.054;4.110;2023-11-19T19:34:30;102363.31;;;19.68;100.00
73240;BME280;61452;40.054;4.110;2023-11-19T19:39:32;102352.75;;;19.66;100.00
73240;BME280;61452;40.054;4.110;2023-11-19T19:44:35;102347.41;;;19.66;100.00
73240;BME280;61452;40.054;4.110;2023-11-19T19:49:38;102349.13;;;19.67;100.00
73240;BME280;61452;40.054;4.110;2023-11-19T19:54:40;102355.31;;;19.68;100.00
73240;BME280;61452;40.054;4.110;2023-11-19T19:59:42;102358.06;;;19.66;100.00
73240;BME280;61452;40.054;4.110;2023-11-19T20:04:44;102356.25;;;19.67;100.00
73240;BME280;61452;40.054;4.110;2023-11-19T20:09:49;102357.13;;;19.67;100.00
73240;BME280;61452;40.054;4.110;2023-11-19T20:14:52;102357.13;;;19.67;100.00
73240;BME280;61452;40.054;4.110;2023-11-19T20:19:54;102360.81;;;19.65;100.00
73240;BME280;61452;40.054;4.110;2023-11-19T20:24:56;102359.88;;;19.66;100.00
73240;BME280;61452;40.054;4.110;2023-11-19T20:29:58;102357.13;;;19.67;100.00
73240;BME280;61452;40.054;4.110;2023-11-19T20:35:00;102362.53;;;19.66;100.00
73240;BME280;61452;40.054;4.110;2023-11-19T20:40:04;102372.25;;;19.67;100.00
73240;BME280;61452;40.054;4.110;2023-11-19T20:45:07;102361.69;;;19.65;100.00
73240;BME280;61452;40.054;4.110;2023-11-19T20:50:13;102353.69;;;19.65;100.00
73240;BME280;61452;40.054;4.110;2023-11-19T20:55:16;102358.16;;;19.65;100.00
73240;BME280;61452;40.054;4.110;2023-11-19T21:00:18;102361.69;;;19.65;100.00
73240;BME280;61452;40.054;4.110;2023-11-19T21:05:23;102358.16;;;19.65;100.00
73240;BME280;61452;40.054;4.110;2023-11-19T21:10:25;102359.00;;;19.65;100.00
73240;BME280;61452;40.054;4.110;2023-11-19T21:15:27;102371.38;;;19.66;100.00
73240;BME280;61452;40.054;4.110;2023-11-19T21:20:31;102360.81;;;19.65;100.00
73240;BME280;61452;40.054;4.110;2023-11-19T21:25:33;102363.41;;;19.66;100.00
73240;BME280;61452;40.054;4.110;2023-11-19T21:30:35;102371.38;;;19.66;100.00
73240;BME280;61452;40.054;4.110;2023-11-19T21:35:37;102365.19;;;19.66;100.00
73240;BME280;61452;40.054;4.110;2023-11-19T21:40:40;102373.19;;;19.66;100.00
73240;BME280;61452;40.054;4.110;2023-11-19T21:45:42;102367.09;;;19.64;100.00
73240;BME280;61452;40.054;4.110;2023-11-19T21:50:44;102367.94;;;19.64;100.00
73240;BME280;61452;40.054;4.110;2023-11-19T21:55:47;102363.47;;;19.65;100.00
73240;BME280;61452;40.054;4.110;2023-11-19T22:00:50;102359.09;;;19.64;100.00
73240;BME280;61452;40.054;4.110;2023-11-19T22:05:52;102352.91;;;19.63;100.00
73240;BME280;61452;40.054;4.110;2023-11-19T22:10:55;102349.41;;;19.63;100.00
73240;BME280;61452;40.054;4.110;2023-11-19T22:15:57;102350.38;;;19.62;100.00
73240;BME280;61452;40.054;4.110;2023-11-19T22:20:59;102350.25;;;19.63;100.00
73240;BME280;61452;40.054;4.110;2023-11-19T22:26:04;102345.91;;;19.62;100.00
73240;BME280;61452;40.054;4.110;2023-11-19T22:31:06;102358.38;;;19.62;100.00
73240;BME280;61452;40.054;4.110;2023-11-19T22:36:09;102351.50;;;19.58;100.00
73240;BME280;61452;40.054;4.110;2023-11-19T22:41:12;102356.66;;;19.61;100.00
73240;BME280;61452;40.054;4.110;2023-11-19T22:46:14;102365.50;;;19.61;100.00
73240;BME280;61452;40.054;4.110;2023-11-19T22:51:17;102369.00;;;19.62;100.00
73240;BME280;61452;40.054;4.110;2023-11-19T22:56:19;102354.28;;;19.56;100.00
73240;BME280;61452;40.054;4.110;2023-11-19T23:01:21;102348.75;;;19.59;100.00
73240;BME280;61452;40.054;4.110;2023-11-19T23:06:24;102344.28;;;19.60;100.00
73240;BME280;61452;40.054;4.110;2023-11-19T23:11:26;102335.44;;;19.59;100.00
73240;BME280;61452;40.054;4.110;2023-11-19T23:16:28;102328.31;;;19.60;100.00
73240;BME280;61452;40.054;4.110;2023-11-19T23:21:31;102318.81;;;19.56;100.00
73240;BME280;61452;40.054;4.110;2023-11-19T23:26:33;102328.41;;;19.58;100.00
73240;BME280;61452;40.054;4.110;2023-11-19T23:31:35;102322.13;;;19.59;100.00
73240;BME280;61452;40.054;4.110;2023-11-19T23:36:37;102317.75;;;19.58;100.00
73240;BME280;61452;40.054;4.110;2023-11-19T23:41:40;102315.09;;;19.58;100.00
73240;BME280;61452;40.054;4.110;2023-11-19T23:46:42;102302.84;;;19.56;100.00
73240;BME280;61452;40.054;4.110;2023-11-19T23:51:44;102298.47;;;19.55;100.00
73240;BME280;61452;40.054;4.110;2023-11-19T23:56:47;102293.88;;;19.57;100.00
